sensor_id;sensor_type;location;lat;lon;timestamp;P1;durP1;ratioP1;P2;durP2;ratioP2
50968;SDS011;36982;51.474;7.228;2022-12-18T00:02:14;7.50;;;3.43;;
50968;SDS011;36982;51.474;7.228;2022-12-18T00:04:40;5.93;;;3.30;;
50968;SDS011;36982;51.474;7.228;2022-12-18T00:07:05;6.30;;;3.40;;
50968;SDS011;36982;51.474;7.228;2022-12-18T00:09:31;6.10;;;3.63;;
50968;SDS011;36982;51.474;7.228;2022-12-18T00:11:57;4.87;;;3.50;;
50968;SDS011;36982;51.474;7.228;2022-12-18T00:14:22;6.30;;;3.13;;
50968;SDS011;36982;51.474;7.228;2022-12-18T00:16:48;5.00;;;3.33;;
50968;SDS011;36982;51.474;7.228;2022-12-18T00:19:14;5.10;;;2.87;;
50968;SDS011;36982;51.474;7.228;2022-12-18T00:21:40;6.27;;;3.20;;
50968;SDS011;36982;51.474;7.228;2022-12-18T00:24:06;5.13;;;2.93;;
50968;SDS011;36982;51.474;7.228;2022-12-18T00:26:33;4.73;;;2.40;;
50968;SDS011;36982;51.474;7.228;2022-12-18T00:29:02;6.20;;;3.20;;
50968;SDS011;36982;51.474;7.228;2022-12-18T00:31:31;4.93;;;3.33;;
50968;SDS011;36982;51.474;7.228;2022-12-18T00:33:57;5.20;;;2.97;;
50968;SDS011;36982;51.474;7.228;2022-12-18T00:36:24;5.33;;;3.13;;
50968;SDS011;36982;51.474;7.228;2022-12-18T00:38:51;6.33;;;3.43;;
50968;SDS011;36982;51.474;7.228;2022-12-18T00:41:19;8.17;;;4.30;;
50968;SDS011;36982;51.474;7.228;2022-12-18T00:44:03;9.27;;;5.37;;
50968;SDS011;36982;51.474;7.228;2022-12-18T00:46:29;7.57;;;4.67;;
50968;SDS011;36982;51.474;7.228;2022-12-18T00:48:55;6.20;;;3.97;;
50968;SDS011;36982;51.474;7.228;2022-12-18T00:51:21;5.43;;;3.07;;
50968;SDS011;36982;51.474;7.228;2022-12-18T00:53:46;6.33;;;3.27;;
50968;SDS011;36982;51.474;7.228;2022-12-18T00:56:12;6.60;;;3.23;;
50968;SDS011;36982;51.474;7.228;2022-12-18T00:58:38;5.97;;;2.87;;
50968;SDS011;36982;51.474;7.228;2022-12-18T01:01:04;4.90;;;2.50;;
50968;SDS011;36982;51.474;7.228;2022-12-18T01:03:30;5.10;;;2.63;;
50968;SDS011;36982;51.474;7.228;2022-12-18T01:05:56;4.83;;;2.97;;
50968;SDS011;36982;51.474;7.228;2022-12-18T01:08:21;4.03;;;2.60;;
50968;SDS011;36982;51.474;7.228;2022-12-18T01:10:47;4.57;;;2.63;;
50968;SDS011;36982;51.474;7.228;2022-12-18T01:13:13;4.40;;;2.30;;
50968;SDS011;36982;51.474;7.228;2022-12-18T01:15:39;6.70;;;3.00;;
50968;SDS011;36982;51.474;7.228;2022-12-18T01:18:05;4.63;;;2.40;;
50968;SDS011;36982;51.474;7.228;2022-12-18T01:20:31;4.47;;;2.50;;
50968;SDS011;36982;51.474;7.228;2022-12-18T01:22:57;3.40;;;2.50;;
50968;SDS011;36982;51.474;7.228;2022-12-18T01:25:22;5.43;;;2.70;;
50968;SDS011;36982;51.474;7.228;2022-12-18T01:27:48;5.03;;;2.67;;
50968;SDS011;36982;51.474;7.228;2022-12-18T01:30:14;5.33;;;3.00;;
50968;SDS011;36982;51.474;7.228;2022-12-18T01:32:40;5.13;;;2.93;;
50968;SDS011;36982;51.474;7.228;2022-12-18T01:35:06;4.33;;;2.90;;
50968;SDS011;36982;51.474;7.228;2022-12-18T01:37:32;6.30;;;3.27;;
50968;SDS011;36982;51.474;7.228;2022-12-18T01:39:57;5.37;;;3.20;;
50968;SDS011;36982;51.474;7.228;2022-12-18T01:42:23;6.07;;;3.20;;
50968;SDS011;36982;51.474;7.228;2022-12-18T01:47:23;5.40;;;3.10;;
50968;SDS011;36982;51.474;7.228;2022-12-18T01:49:50;5.33;;;2.93;;
50968;SDS011;36982;51.474;7.228;2022-12-18T01:52:16;5.93;;;3.93;;
50968;SDS011;36982;51.474;7.228;2022-12-18T01:54:43;5.53;;;3.10;;
50968;SDS011;36982;51.474;7.228;2022-12-18T01:57:09;3.87;;;2.80;;
50968;SDS011;36982;51.474;7.228;2022-12-18T01:59:35;3.77;;;2.40;;
50968;SDS011;36982;51.474;7.228;2022-12-18T02:02:02;3.83;;;2.63;;
50968;SDS011;36982;51.474;7.228;2022-12-18T02:04:28;4.43;;;2.67;;
50968;SDS011;36982;51.474;7.228;2022-12-18T02:07:01;5.67;;;2.40;;
50968;SDS011;36982;51.474;7.228;2022-12-18T02:09:50;4.90;;;2.43;;
50968;SDS011;36982;51.474;7.228;2022-12-18T02:12:35;3.87;;;2.03;;
50968;SDS011;36982;51.474;7.228;2022-12-18T02:18:18;4.37;;;2.30;;
50968;SDS011;36982;51.474;7.228;2022-12-18T02:20:48;5.07;;;2.17;;
50968;SDS011;36982;51.474;7.228;2022-12-18T02:24:01;4.23;;;2.23;;
50968;SDS011;36982;51.474;7.228;2022-12-18T02:26:41;6.00;;;2.57;;
50968;SDS011;36982;51.474;7.228;2022-12-18T02:29:12;4.17;;;2.60;;
50968;SDS011;36982;51.474;7.228;2022-12-18T02:32:02;6.97;;;2.67;;
50968;SDS011;36982;51.474;7.228;2022-12-18T02:34:34;4.37;;;2.70;;
50968;SDS011;36982;51.474;7.228;2022-12-18T02:37:04;4.97;;;2.50;;
50968;SDS011;36982;51.474;7.228;2022-12-18T02:39:34;3.77;;;2.20;;
50968;SDS011;36982;51.474;7.228;2022-12-18T02:42:02;5.57;;;2.23;;
50968;SDS011;36982;51.474;7.228;2022-12-18T02:44:32;2.93;;;2.20;;
50968;SDS011;36982;51.474;7.228;2022-12-18T02:46:59;3.50;;;2.07;;
50968;SDS011;36982;51.474;7.228;2022-12-18T03:00:24;4.20;;;2.20;;
50968;SDS011;36982;51.474;7.228;2022-12-18T03:05:37;2.43;;;1.77;;
50968;SDS011;36982;51.474;7.228;2022-12-18T03:08:24;3.30;;;2.07;;
50968;SDS011;36982;51.474;7.228;2022-12-18T03:11:03;3.93;;;2.50;;
50968;SDS011;36982;51.474;7.228;2022-12-18T03:16:10;3.23;;;1.93;;
50968;SDS011;36982;51.474;7.228;2022-12-18T03:18:48;3.50;;;2.07;;
50968;SDS011;36982;51.474;7.228;2022-12-18T03:21:27;3.23;;;2.00;;
50968;SDS011;36982;51.474;7.228;2022-12-18T03:23:56;3.10;;;1.93;;
50968;SDS011;36982;51.474;7.228;2022-12-18T03:26:24;3.13;;;1.90;;
50968;SDS011;36982;51.474;7.228;2022-12-18T03:28:53;3.53;;;2.10;;
50968;SDS011;36982;51.474;7.228;2022-12-18T03:31:24;4.13;;;2.00;;
50968;SDS011;36982;51.474;7.228;2022-12-18T03:33:53;3.60;;;2.30;;
50968;SDS011;36982;51.474;7.228;2022-12-18T03:36:23;3.70;;;2.30;;
50968;SDS011;36982;51.474;7.228;2022-12-18T03:38:50;4.03;;;2.20;;
50968;SDS011;36982;51.474;7.228;2022-12-18T03:44:01;3.53;;;2.10;;
50968;SDS011;36982;51.474;7.228;2022-12-18T03:51:51;3.83;;;1.80;;
50968;SDS011;36982;51.474;7.228;2022-12-18T03:54:23;3.53;;;2.30;;
50968;SDS011;36982;51.474;7.228;2022-12-18T03:56:55;2.77;;;1.80;;
50968;SDS011;36982;51.474;7.228;2022-12-18T03:59:25;3.00;;;1.97;;
50968;SDS011;36982;51.474;7.228;2022-12-18T04:01:53;3.00;;;2.00;;
50968;SDS011;36982;51.474;7.228;2022-12-18T04:04:22;4.37;;;2.10;;
50968;SDS011;36982;51.474;7.228;2022-12-18T04:06:50;3.53;;;1.93;;
50968;SDS011;36982;51.474;7.228;2022-12-18T04:09:17;4.03;;;2.47;;
50968;SDS011;36982;51.474;7.228;2022-12-18T04:11:44;2.90;;;2.00;;
50968;SDS011;36982;51.474;7.228;2022-12-18T04:14:10;3.70;;;2.00;;
50968;SDS011;36982;51.474;7.228;2022-12-18T04:16:36;2.60;;;1.83;;
50968;SDS011;36982;51.474;7.228;2022-12-18T04:19:02;4.33;;;2.10;;
50968;SDS011;36982;51.474;7.228;2022-12-18T04:21:28;3.00;;;1.97;;
50968;SDS011;36982;51.474;7.228;2022-12-18T04:23:54;3.90;;;1.97;;
50968;SDS011;36982;51.474;7.228;2022-12-18T04:26:20;2.40;;;1.70;;
50968;SDS011;36982;51.474;7.228;2022-12-18T04:28:45;3.23;;;1.90;;
50968;SDS011;36982;51.474;7.228;2022-12-18T04:31:11;3.97;;;2.17;;
50968;SDS011;36982;51.474;7.228;2022-12-18T04:33:37;3.30;;;1.80;;
50968;SDS011;36982;51.474;7.228;2022-12-18T04:36:03;3.00;;;1.97;;
50968;SDS011;36982;51.474;7.228;2022-12-18T04:38:29;2.87;;;1.83;;
50968;SDS011;36982;51.474;7.228;2022-12-18T04:40:55;3.30;;;1.73;;
50968;SDS011;36982;51.474;7.228;2022-12-18T04:43:20;3.13;;;1.73;;
50968;SDS011;36982;51.474;7.228;2022-12-18T04:45:46;2.47;;;1.57;;
50968;SDS011;36982;51.474;7.228;2022-12-18T04:48:12;2.93;;;1.70;;
50968;SDS011;36982;51.474;7.228;2022-12-18T04:50:37;2.43;;;1.50;;
50968;SDS011;36982;51.474;7.228;2022-12-18T04:53:03;2.53;;;1.40;;
50968;SDS011;36982;51.474;7.228;2022-12-18T04:55:28;2.53;;;1.40;;
50968;SDS011;36982;51.474;7.228;2022-12-18T04:57:54;3.50;;;1.83;;
50968;SDS011;36982;51.474;7.228;2022-12-18T05:00:19;2.23;;;1.43;;
50968;SDS011;36982;51.474;7.228;2022-12-18T05:02:45;2.50;;;1.50;;
50968;SDS011;36982;51.474;7.228;2022-12-18T05:05:11;3.33;;;1.80;;
50968;SDS011;36982;51.474;7.228;2022-12-18T05:07:36;2.70;;;1.60;;
50968;SDS011;36982;51.474;7.228;2022-12-18T05:10:02;3.50;;;1.93;;
50968;SDS011;36982;51.474;7.228;2022-12-18T05:12:31;3.60;;;1.93;;
50968;SDS011;36982;51.474;7.228;2022-12-18T05:14:57;4.17;;;2.20;;
50968;SDS011;36982;51.474;7.228;2022-12-18T05:17:23;4.60;;;2.20;;
50968;SDS011;36982;51.474;7.228;2022-12-18T05:19:48;5.53;;;2.80;;
50968;SDS011;36982;51.474;7.228;2022-12-18T05:22:14;4.00;;;2.30;;
50968;SDS011;36982;51.474;7.228;2022-12-18T05:24:40;3.13;;;2.23;;
50968;SDS011;36982;51.474;7.228;2022-12-18T05:27:05;5.07;;;2.53;;
50968;SDS011;36982;51.474;7.228;2022-12-18T05:29:31;4.93;;;3.00;;
50968;SDS011;36982;51.474;7.228;2022-12-18T05:31:56;4.63;;;3.10;;
50968;SDS011;36982;51.474;7.228;2022-12-18T05:34:22;4.90;;;3.40;;
50968;SDS011;36982;51.474;7.228;2022-12-18T05:36:48;5.17;;;3.27;;
50968;SDS011;36982;51.474;7.228;2022-12-18T05:39:13;6.03;;;3.20;;
50968;SDS011;36982;51.474;7.228;2022-12-18T05:41:39;4.70;;;3.07;;
50968;SDS011;36982;51.474;7.228;2022-12-18T05:44:04;5.57;;;2.90;;
50968;SDS011;36982;51.474;7.228;2022-12-18T05:46:30;6.23;;;3.53;;
50968;SDS011;36982;51.474;7.228;2022-12-18T05:48:58;5.40;;;3.23;;
50968;SDS011;36982;51.474;7.228;2022-12-18T05:51:25;5.00;;;3.13;;
50968;SDS011;36982;51.474;7.228;2022-12-18T05:53:50;4.77;;;2.93;;
50968;SDS011;36982;51.474;7.228;2022-12-18T05:56:17;5.77;;;3.43;;
50968;SDS011;36982;51.474;7.228;2022-12-18T05:58:45;6.87;;;3.43;;
50968;SDS011;36982;51.474;7.228;2022-12-18T06:03:41;6.03;;;3.20;;
50968;SDS011;36982;51.474;7.228;2022-12-18T06:06:21;5.53;;;2.80;;
50968;SDS011;36982;51.474;7.228;2022-12-18T06:08:47;4.10;;;3.10;;
50968;SDS011;36982;51.474;7.228;2022-12-18T06:11:15;4.40;;;2.70;;
50968;SDS011;36982;51.474;7.228;2022-12-18T06:13:42;4.83;;;3.30;;
50968;SDS011;36982;51.474;7.228;2022-12-18T06:16:07;5.23;;;3.17;;
50968;SDS011;36982;51.474;7.228;2022-12-18T06:18:33;5.50;;;3.23;;
50968;SDS011;36982;51.474;7.228;2022-12-18T06:21:02;6.27;;;3.23;;
50968;SDS011;36982;51.474;7.228;2022-12-18T06:23:27;5.17;;;2.83;;
50968;SDS011;36982;51.474;7.228;2022-12-18T06:25:53;5.43;;;3.00;;
50968;SDS011;36982;51.474;7.228;2022-12-18T06:28:19;4.63;;;3.00;;
50968;SDS011;36982;51.474;7.228;2022-12-18T06:30:48;4.57;;;2.67;;
50968;SDS011;36982;51.474;7.228;2022-12-18T06:33:15;4.97;;;3.00;;
50968;SDS011;36982;51.474;7.228;2022-12-18T06:35:41;5.17;;;2.93;;
50968;SDS011;36982;51.474;7.228;2022-12-18T06:38:07;5.00;;;3.00;;
50968;SDS011;36982;51.474;7.228;2022-12-18T06:40:33;4.43;;;3.00;;
50968;SDS011;36982;51.474;7.228;2022-12-18T06:42:58;4.30;;;2.87;;
50968;SDS011;36982;51.474;7.228;2022-12-18T06:45:24;4.30;;;2.83;;
50968;SDS011;36982;51.474;7.228;2022-12-18T06:47:50;6.00;;;2.93;;
50968;SDS011;36982;51.474;7.228;2022-12-18T06:50:15;4.90;;;3.20;;
50968;SDS011;36982;51.474;7.228;2022-12-18T06:52:41;5.77;;;3.27;;
50968;SDS011;36982;51.474;7.228;2022-12-18T06:55:08;5.77;;;3.30;;
50968;SDS011;36982;51.474;7.228;2022-12-18T06:57:35;5.40;;;3.40;;
50968;SDS011;36982;51.474;7.228;2022-12-18T07:00:01;5.20;;;3.23;;
50968;SDS011;36982;51.474;7.228;2022-12-18T07:02:28;4.53;;;2.97;;
50968;SDS011;36982;51.474;7.228;2022-12-18T07:04:53;5.97;;;3.43;;
50968;SDS011;36982;51.474;7.228;2022-12-18T07:07:19;5.17;;;3.50;;
50968;SDS011;36982;51.474;7.228;2022-12-18T07:09:44;4.50;;;2.97;;
50968;SDS011;36982;51.474;7.228;2022-12-18T07:12:10;6.63;;;3.40;;
50968;SDS011;36982;51.474;7.228;2022-12-18T07:14:35;4.47;;;3.30;;
50968;SDS011;36982;51.474;7.228;2022-12-18T07:17:01;6.20;;;3.53;;
50968;SDS011;36982;51.474;7.228;2022-12-18T07:19:26;5.97;;;3.30;;
50968;SDS011;36982;51.474;7.228;2022-12-18T07:21:52;7.33;;;3.80;;
50968;SDS011;36982;51.474;7.228;2022-12-18T07:24:18;6.23;;;3.40;;
50968;SDS011;36982;51.474;7.228;2022-12-18T07:26:45;5.13;;;3.43;;
50968;SDS011;36982;51.474;7.228;2022-12-18T07:29:11;5.00;;;3.30;;
50968;SDS011;36982;51.474;7.228;2022-12-18T07:31:36;7.30;;;3.40;;
50968;SDS011;36982;51.474;7.228;2022-12-18T07:34:02;4.73;;;3.13;;
50968;SDS011;36982;51.474;7.228;2022-12-18T07:36:28;6.57;;;3.47;;
50968;SDS011;36982;51.474;7.228;2022-12-18T07:38:53;5.17;;;3.70;;
50968;SDS011;36982;51.474;7.228;2022-12-18T07:41:19;5.43;;;3.20;;
50968;SDS011;36982;51.474;7.228;2022-12-18T07:43:45;7.17;;;4.30;;
50968;SDS011;36982;51.474;7.228;2022-12-18T07:46:11;8.93;;;4.60;;
50968;SDS011;36982;51.474;7.228;2022-12-18T07:48:39;8.40;;;4.20;;
50968;SDS011;36982;51.474;7.228;2022-12-18T07:51:06;6.83;;;3.33;;
50968;SDS011;36982;51.474;7.228;2022-12-18T07:53:32;8.23;;;4.30;;
50968;SDS011;36982;51.474;7.228;2022-12-18T07:56:00;6.47;;;3.67;;
50968;SDS011;36982;51.474;7.228;2022-12-18T07:58:28;7.57;;;3.87;;
50968;SDS011;36982;51.474;7.228;2022-12-18T08:00:54;7.27;;;3.90;;
50968;SDS011;36982;51.474;7.228;2022-12-18T08:03:26;10.40;;;4.37;;
50968;SDS011;36982;51.474;7.228;2022-12-18T08:05:52;7.63;;;4.07;;
50968;SDS011;36982;51.474;7.228;2022-12-18T08:08:17;6.60;;;3.70;;
50968;SDS011;36982;51.474;7.228;2022-12-18T08:10:43;6.73;;;3.90;;
50968;SDS011;36982;51.474;7.228;2022-12-18T08:13:08;7.40;;;3.87;;
50968;SDS011;36982;51.474;7.228;2022-12-18T08:15:34;6.83;;;3.47;;
50968;SDS011;36982;51.474;7.228;2022-12-18T08:17:59;5.53;;;3.60;;
50968;SDS011;36982;51.474;7.228;2022-12-18T08:20:25;6.20;;;3.80;;
50968;SDS011;36982;51.474;7.228;2022-12-18T08:22:50;6.97;;;3.80;;
50968;SDS011;36982;51.474;7.228;2022-12-18T08:25:16;5.63;;;3.53;;
50968;SDS011;36982;51.474;7.228;2022-12-18T08:27:42;7.17;;;4.00;;
50968;SDS011;36982;51.474;7.228;2022-12-18T08:30:07;6.27;;;3.70;;
50968;SDS011;36982;51.474;7.228;2022-12-18T08:32:34;9.90;;;4.63;;
50968;SDS011;36982;51.474;7.228;2022-12-18T08:34:59;7.27;;;3.63;;
50968;SDS011;36982;51.474;7.228;2022-12-18T08:37:25;5.73;;;3.90;;
50968;SDS011;36982;51.474;7.228;2022-12-18T08:39:50;8.20;;;4.33;;
50968;SDS011;36982;51.474;7.228;2022-12-18T08:42:16;6.30;;;3.70;;
50968;SDS011;36982;51.474;7.228;2022-12-18T08:45:00;5.23;;;3.33;;
50968;SDS011;36982;51.474;7.228;2022-12-18T08:47:26;5.60;;;3.53;;
50968;SDS011;36982;51.474;7.228;2022-12-18T08:49:51;7.30;;;4.17;;
50968;SDS011;36982;51.474;7.228;2022-12-18T08:52:19;6.77;;;3.97;;
50968;SDS011;36982;51.474;7.228;2022-12-18T08:54:45;6.13;;;3.77;;
50968;SDS011;36982;51.474;7.228;2022-12-18T08:57:10;6.80;;;4.40;;
50968;SDS011;36982;51.474;7.228;2022-12-18T08:59:36;5.73;;;3.87;;
50968;SDS011;36982;51.474;7.228;2022-12-18T09:02:02;7.77;;;3.93;;
50968;SDS011;36982;51.474;7.228;2022-12-18T09:04:27;8.57;;;3.87;;
50968;SDS011;36982;51.474;7.228;2022-12-18T09:06:53;6.63;;;3.37;;
50968;SDS011;36982;51.474;7.228;2022-12-18T09:09:18;4.90;;;3.00;;
50968;SDS011;36982;51.474;7.228;2022-12-18T09:11:44;6.27;;;3.50;;
50968;SDS011;36982;51.474;7.228;2022-12-18T09:14:10;4.50;;;2.70;;
50968;SDS011;36982;51.474;7.228;2022-12-18T09:16:35;3.77;;;2.03;;
50968;SDS011;36982;51.474;7.228;2022-12-18T09:19:02;5.10;;;2.77;;
50968;SDS011;36982;51.474;7.228;2022-12-18T09:21:33;4.30;;;2.13;;
50968;SDS011;36982;51.474;7.228;2022-12-18T09:24:04;2.10;;;1.20;;
50968;SDS011;36982;51.474;7.228;2022-12-18T09:26:30;3.80;;;1.40;;
50968;SDS011;36982;51.474;7.228;2022-12-18T09:28:55;3.47;;;1.57;;
50968;SDS011;36982;51.474;7.228;2022-12-18T09:31:22;5.30;;;1.83;;
50968;SDS011;36982;51.474;7.228;2022-12-18T09:33:48;2.60;;;1.40;;
50968;SDS011;36982;51.474;7.228;2022-12-18T09:36:15;3.17;;;1.70;;
50968;SDS011;36982;51.474;7.228;2022-12-18T09:38:42;3.20;;;1.43;;
50968;SDS011;36982;51.474;7.228;2022-12-18T09:44:20;2.47;;;1.30;;
50968;SDS011;36982;51.474;7.228;2022-12-18T09:49:23;2.57;;;1.53;;
50968;SDS011;36982;51.474;7.228;2022-12-18T09:51:54;2.10;;;1.47;;
50968;SDS011;36982;51.474;7.228;2022-12-18T09:54:36;2.47;;;1.30;;
50968;SDS011;36982;51.474;7.228;2022-12-18T09:57:15;2.70;;;1.83;;
50968;SDS011;36982;51.474;7.228;2022-12-18T09:59:48;1.93;;;1.30;;
50968;SDS011;36982;51.474;7.228;2022-12-18T10:02:21;2.10;;;1.30;;
50968;SDS011;36982;51.474;7.228;2022-12-18T10:08:30;2.07;;;1.30;;
50968;SDS011;36982;51.474;7.228;2022-12-18T10:16:54;1.70;;;1.13;;
50968;SDS011;36982;51.474;7.228;2022-12-18T10:19:37;2.20;;;1.30;;
50968;SDS011;36982;51.474;7.228;2022-12-18T10:22:13;2.77;;;1.33;;
50968;SDS011;36982;51.474;7.228;2022-12-18T10:27:25;2.97;;;1.80;;
50968;SDS011;36982;51.474;7.228;2022-12-18T10:29:52;2.67;;;1.63;;
50968;SDS011;36982;51.474;7.228;2022-12-18T10:32:22;3.47;;;1.80;;
50968;SDS011;36982;51.474;7.228;2022-12-18T10:34:51;4.77;;;2.23;;
50968;SDS011;36982;51.474;7.228;2022-12-18T10:37:20;11.23;;;3.47;;
50968;SDS011;36982;51.474;7.228;2022-12-18T10:40:06;7.70;;;2.60;;
50968;SDS011;36982;51.474;7.228;2022-12-18T10:42:34;6.23;;;2.20;;
50968;SDS011;36982;51.474;7.228;2022-12-18T10:45:10;3.27;;;2.00;;
50968;SDS011;36982;51.474;7.228;2022-12-18T10:47:48;4.00;;;1.70;;
50968;SDS011;36982;51.474;7.228;2022-12-18T10:50:26;4.37;;;2.17;;
50968;SDS011;36982;51.474;7.228;2022-12-18T10:53:01;3.90;;;2.10;;
50968;SDS011;36982;51.474;7.228;2022-12-18T10:55:33;2.80;;;1.70;;
50968;SDS011;36982;51.474;7.228;2022-12-18T11:00:45;3.10;;;1.63;;
50968;SDS011;36982;51.474;7.228;2022-12-18T11:03:30;3.13;;;1.90;;
50968;SDS011;36982;51.474;7.228;2022-12-18T11:06:01;4.30;;;2.10;;
50968;SDS011;36982;51.474;7.228;2022-12-18T11:08:35;3.77;;;1.90;;
50968;SDS011;36982;51.474;7.228;2022-12-18T11:11:02;3.73;;;2.13;;
50968;SDS011;36982;51.474;7.228;2022-12-18T11:13:29;4.00;;;2.60;;
50968;SDS011;36982;51.474;7.228;2022-12-18T11:15:56;5.33;;;2.23;;
50968;SDS011;36982;51.474;7.228;2022-12-18T11:18:30;2.63;;;1.90;;
50968;SDS011;36982;51.474;7.228;2022-12-18T11:21:08;3.27;;;1.80;;
50968;SDS011;36982;51.474;7.228;2022-12-18T11:23:36;3.30;;;1.90;;
50968;SDS011;36982;51.474;7.228;2022-12-18T11:26:08;4.13;;;2.70;;
50968;SDS011;36982;51.474;7.228;2022-12-18T11:28:38;4.47;;;1.80;;
50968;SDS011;36982;51.474;7.228;2022-12-18T11:31:18;2.50;;;1.80;;
50968;SDS011;36982;51.474;7.228;2022-12-18T11:33:49;2.80;;;1.57;;
50968;SDS011;36982;51.474;7.228;2022-12-18T11:36:22;2.57;;;1.67;;
50968;SDS011;36982;51.474;7.228;2022-12-18T11:38:48;4.10;;;2.20;;
50968;SDS011;36982;51.474;7.228;2022-12-18T11:44:36;8.60;;;4.17;;
50968;SDS011;36982;51.474;7.228;2022-12-18T11:47:24;5.73;;;3.30;;
50968;SDS011;36982;51.474;7.228;2022-12-18T11:50:13;3.27;;;1.97;;
50968;SDS011;36982;51.474;7.228;2022-12-18T11:52:47;4.83;;;2.57;;
50968;SDS011;36982;51.474;7.228;2022-12-18T11:55:14;11.27;;;4.67;;
50968;SDS011;36982;51.474;7.228;2022-12-18T11:57:59;15.53;;;6.27;;
50968;SDS011;36982;51.474;7.228;2022-12-18T12:06:46;13.60;;;6.03;;
50968;SDS011;36982;51.474;7.228;2022-12-18T12:12:12;8.40;;;3.37;;
50968;SDS011;36982;51.474;7.228;2022-12-18T12:17:44;7.77;;;4.03;;
50968;SDS011;36982;51.474;7.228;2022-12-18T12:20:48;8.93;;;4.17;;
50968;SDS011;36982;51.474;7.228;2022-12-18T12:23:20;9.43;;;4.93;;
50968;SDS011;36982;51.474;7.228;2022-12-18T12:25:58;6.50;;;3.67;;
50968;SDS011;36982;51.474;7.228;2022-12-18T12:34:18;4.70;;;2.63;;
50968;SDS011;36982;51.474;7.228;2022-12-18T12:39:34;2.53;;;1.90;;
50968;SDS011;36982;51.474;7.228;2022-12-18T12:42:03;3.80;;;2.17;;
50968;SDS011;36982;51.474;7.228;2022-12-18T12:44:54;3.37;;;2.20;;
50968;SDS011;36982;51.474;7.228;2022-12-18T12:49:53;3.63;;;2.10;;
50968;SDS011;36982;51.474;7.228;2022-12-18T12:52:33;3.63;;;2.20;;
50968;SDS011;36982;51.474;7.228;2022-12-18T12:55:03;3.97;;;2.53;;
50968;SDS011;36982;51.474;7.228;2022-12-18T12:57:36;5.40;;;2.70;;
50968;SDS011;36982;51.474;7.228;2022-12-18T13:00:07;5.00;;;2.60;;
50968;SDS011;36982;51.474;7.228;2022-12-18T13:08:11;12.37;;;5.33;;
50968;SDS011;36982;51.474;7.228;2022-12-18T13:10:47;10.47;;;3.60;;
50968;SDS011;36982;51.474;7.228;2022-12-18T13:16:35;10.83;;;4.60;;
50968;SDS011;36982;51.474;7.228;2022-12-18T13:19:03;11.83;;;5.73;;
50968;SDS011;36982;51.474;7.228;2022-12-18T13:21:29;9.80;;;4.40;;
50968;SDS011;36982;51.474;7.228;2022-12-18T13:24:14;7.03;;;3.83;;
50968;SDS011;36982;51.474;7.228;2022-12-18T13:26:48;6.70;;;3.50;;
50968;SDS011;36982;51.474;7.228;2022-12-18T13:29:14;6.37;;;3.17;;
50968;SDS011;36982;51.474;7.228;2022-12-18T13:32:18;5.13;;;3.10;;
50968;SDS011;36982;51.474;7.228;2022-12-18T13:34:48;5.93;;;2.93;;
50968;SDS011;36982;51.474;7.228;2022-12-18T13:40:54;5.77;;;2.87;;
50968;SDS011;36982;51.474;7.228;2022-12-18T13:45:44;5.63;;;3.40;;
50968;SDS011;36982;51.474;7.228;2022-12-18T13:48:29;7.27;;;3.80;;
50968;SDS011;36982;51.474;7.228;2022-12-18T13:51:05;6.80;;;3.17;;
50968;SDS011;36982;51.474;7.228;2022-12-18T13:53:35;5.57;;;3.93;;
50968;SDS011;36982;51.474;7.228;2022-12-18T13:56:02;6.27;;;3.47;;
50968;SDS011;36982;51.474;7.228;2022-12-18T13:58:28;6.20;;;4.47;;
50968;SDS011;36982;51.474;7.228;2022-12-18T14:00:54;6.60;;;4.47;;
50968;SDS011;36982;51.474;7.228;2022-12-18T14:03:21;8.33;;;4.50;;
50968;SDS011;36982;51.474;7.228;2022-12-18T14:05:56;9.33;;;3.77;;
50968;SDS011;36982;51.474;7.228;2022-12-18T14:08:30;6.70;;;3.80;;
50968;SDS011;36982;51.474;7.228;2022-12-18T14:11:00;5.73;;;3.50;;
50968;SDS011;36982;51.474;7.228;2022-12-18T14:13:31;5.97;;;3.57;;
50968;SDS011;36982;51.474;7.228;2022-12-18T14:16:03;7.47;;;3.37;;
50968;SDS011;36982;51.474;7.228;2022-12-18T14:18:48;6.63;;;4.30;;
50968;SDS011;36982;51.474;7.228;2022-12-18T14:21:18;7.03;;;4.07;;
50968;SDS011;36982;51.474;7.228;2022-12-18T14:24:02;7.27;;;4.20;;
50968;SDS011;36982;51.474;7.228;2022-12-18T14:26:54;7.13;;;3.87;;
50968;SDS011;36982;51.474;7.228;2022-12-18T14:29:37;7.53;;;4.53;;
50968;SDS011;36982;51.474;7.228;2022-12-18T14:32:10;6.53;;;4.20;;
50968;SDS011;36982;51.474;7.228;2022-12-18T14:34:44;7.90;;;4.60;;
50968;SDS011;36982;51.474;7.228;2022-12-18T14:37:15;6.37;;;3.80;;
50968;SDS011;36982;51.474;7.228;2022-12-18T14:39:55;7.40;;;4.23;;
50968;SDS011;36982;51.474;7.228;2022-12-18T14:42:23;7.70;;;4.50;;
50968;SDS011;36982;51.474;7.228;2022-12-18T14:45:10;9.20;;;4.53;;
50968;SDS011;36982;51.474;7.228;2022-12-18T14:47:57;10.10;;;5.00;;
50968;SDS011;36982;51.474;7.228;2022-12-18T14:50:23;13.57;;;6.83;;
50968;SDS011;36982;51.474;7.228;2022-12-18T14:52:49;7.23;;;4.63;;
50968;SDS011;36982;51.474;7.228;2022-12-18T14:55:19;8.50;;;5.30;;
50968;SDS011;36982;51.474;7.228;2022-12-18T14:57:48;7.63;;;4.60;;
50968;SDS011;36982;51.474;7.228;2022-12-18T15:00:17;6.60;;;4.50;;
50968;SDS011;36982;51.474;7.228;2022-12-18T15:02:51;7.97;;;4.30;;
50968;SDS011;36982;51.474;7.228;2022-12-18T15:07:51;7.77;;;4.40;;
50968;SDS011;36982;51.474;7.228;2022-12-18T15:13:22;11.73;;;5.90;;
50968;SDS011;36982;51.474;7.228;2022-12-18T15:15:49;8.67;;;5.27;;
50968;SDS011;36982;51.474;7.228;2022-12-18T15:18:16;8.23;;;5.30;;
50968;SDS011;36982;51.474;7.228;2022-12-18T15:20:48;12.40;;;6.07;;
50968;SDS011;36982;51.474;7.228;2022-12-18T15:25:58;9.03;;;5.20;;
50968;SDS011;36982;51.474;7.228;2022-12-18T15:28:39;10.67;;;5.37;;
50968;SDS011;36982;51.474;7.228;2022-12-18T15:36:24;8.37;;;5.10;;
50968;SDS011;36982;51.474;7.228;2022-12-18T15:38:55;13.00;;;6.50;;
50968;SDS011;36982;51.474;7.228;2022-12-18T15:41:22;12.03;;;6.83;;
50968;SDS011;36982;51.474;7.228;2022-12-18T15:43:49;10.70;;;6.23;;
50968;SDS011;36982;51.474;7.228;2022-12-18T15:46:23;9.43;;;6.00;;
50968;SDS011;36982;51.474;7.228;2022-12-18T15:48:50;10.27;;;5.70;;
50968;SDS011;36982;51.474;7.228;2022-12-18T15:53:45;8.80;;;5.40;;
50968;SDS011;36982;51.474;7.228;2022-12-18T15:56:12;11.20;;;6.07;;
50968;SDS011;36982;51.474;7.228;2022-12-18T15:58:58;12.97;;;7.40;;
50968;SDS011;36982;51.474;7.228;2022-12-18T16:01:28;12.53;;;6.57;;
50968;SDS011;36982;51.474;7.228;2022-12-18T16:03:56;11.00;;;6.23;;
50968;SDS011;36982;51.474;7.228;2022-12-18T16:06:22;10.03;;;5.63;;
50968;SDS011;36982;51.474;7.228;2022-12-18T16:08:48;10.90;;;6.30;;
50968;SDS011;36982;51.474;7.228;2022-12-18T16:13:45;9.57;;;5.77;;
50968;SDS011;36982;51.474;7.228;2022-12-18T16:16:10;10.20;;;5.80;;
50968;SDS011;36982;51.474;7.228;2022-12-18T16:18:36;11.37;;;6.13;;
50968;SDS011;36982;51.474;7.228;2022-12-18T16:21:01;13.07;;;7.47;;
50968;SDS011;36982;51.474;7.228;2022-12-18T16:23:28;12.47;;;6.67;;
50968;SDS011;36982;51.474;7.228;2022-12-18T16:25:53;17.27;;;8.00;;
50968;SDS011;36982;51.474;7.228;2022-12-18T16:28:19;17.93;;;8.07;;
50968;SDS011;36982;51.474;7.228;2022-12-18T16:30:44;12.13;;;7.00;;
50968;SDS011;36982;51.474;7.228;2022-12-18T16:33:10;12.97;;;7.37;;
50968;SDS011;36982;51.474;7.228;2022-12-18T16:35:36;11.63;;;6.90;;
50968;SDS011;36982;51.474;7.228;2022-12-18T16:38:02;12.00;;;7.07;;
50968;SDS011;36982;51.474;7.228;2022-12-18T16:40:27;14.57;;;8.03;;
50968;SDS011;36982;51.474;7.228;2022-12-18T16:42:56;10.93;;;7.17;;
50968;SDS011;36982;51.474;7.228;2022-12-18T16:45:21;13.93;;;7.87;;
50968;SDS011;36982;51.474;7.228;2022-12-18T16:47:47;14.77;;;7.70;;
50968;SDS011;36982;51.474;7.228;2022-12-18T16:50:12;12.50;;;7.60;;
50968;SDS011;36982;51.474;7.228;2022-12-18T16:52:38;11.97;;;7.63;;